Time;durP1;ratioP1;P1;durP2;ratioP2;P2;SDS_P1;SDS_P2;PMS_P1;PMS_P2;Temp;Humidity;BMP_temperature;BMP_pressure;BME280_temperature;BME280_humidity;BME280_pressure;Samples;Min_cycle;Max_cycle;Signal;HPM_P1;HPM_P2
2021/06/06 00:00:47;;;;;;;157.38;60.67;;;14.80;98.80;;;;;;4969925;28;20031;-87
2021/06/06 00:03:17;;;;;;;137.30;61.17;;;14.80;98.90;;;;;;4977738;28;20118;-86
2021/06/06 00:05:53;;;;;;;127.13;60.13;;;14.80;99.30;;;;;;4950041;28;20056;-86
2021/06/06 00:08:20;;;;;;;124.38;57.97;;;14.80;99.00;;;;;;4934519;28;20059;-85
2021/06/06 00:10:46;;;;;;;149.80;62.60;;;14.80;99.00;;;;;;4945813;28;20094;-89
2021/06/06 00:13:14;;;;;;;118.70;58.38;;;14.80;99.10;;;;;;4947393;28;20130;-86
2021/06/06 00:15:41;;;;;;;161.73;62.78;;;14.80;99.10;;;;;;4953532;28;20684;-86
2021/06/06 00:18:07;;;;;;;150.80;61.20;;;14.80;99.10;;;;;;4935933;28;20869;-85
2021/06/06 00:20:33;;;;;;;140.13;57.50;;;14.80;99.10;;;;;;4917006;29;20036;-85
2021/06/06 00:22:59;;;;;;;105.90;51.85;;;14.80;99.10;;;;;;4954584;28;20046;-86
2021/06/06 00:25:25;;;;;;;135.98;56.90;;;14.80;99.10;;;;;;4952212;28;20565;-86
2021/06/06 00:27:52;;;;;;;127.13;55.53;;;14.70;99.00;;;;;;4938765;28;20047;-86
2021/06/06 00:30:19;;;;;;;122.25;55.20;;;14.70;99.10;;;;;;4971381;28;20039;-86
2021/06/06 00:32:46;;;;;;;135.25;57.95;;;14.70;99.10;;;;;;4968352;28;20822;-87
2021/06/06 00:35:12;;;;;;;149.52;59.55;;;14.70;99.10;;;;;;4907626;29;20039;-87
2021/06/06 00:37:38;;;;;;;167.18;61.60;;;14.70;99.10;;;;;;4951495;28;20055;-87
2021/06/06 00:40:06;;;;;;;164.55;60.58;;;14.70;99.10;;;;;;4939357;28;20051;-86
2021/06/06 00:42:32;;;;;;;223.30;65.68;;;14.60;99.10;;;;;;4935012;28;20039;-87
2021/06/06 00:44:58;;;;;;;186.35;63.20;;;14.60;99.10;;;;;;4958746;28;20061;-87
2021/06/06 00:47:25;;;;;;;204.50;63.67;;;14.60;99.10;;;;;;4928411;29;20055;-87
2021/06/06 00:49:52;;;;;;;244.35;66.25;;;14.60;99.20;;;;;;4916377;29;20534;-86
2021/06/06 00:52:19;;;;;;;216.02;65.78;;;14.60;99.20;;;;;;4947448;28;20035;-87
2021/06/06 00:54:47;;;;;;;167.82;62.83;;;14.60;99.30;;;;;;4949068;29;20027;-87
2021/06/06 00:57:19;;;;;;;149.63;58.83;;;14.60;99.30;;;;;;4943275;28;20035;-87
2021/06/06 00:59:58;;;;;;;176.43;61.33;;;14.60;99.40;;;;;;4979206;28;20063;-87
2021/06/06 01:02:24;;;;;;;171.48;57.35;;;14.60;99.40;;;;;;4950433;28;20066;-86
2021/06/06 01:04:50;;;;;;;123.72;52.63;;;14.60;99.40;;;;;;4932876;29;20043;-87
2021/06/06 01:07:16;;;;;;;161.13;56.92;;;14.60;99.40;;;;;;4939970;28;20114;-86
2021/06/06 01:09:41;;;;;;;188.65;61.03;;;14.60;99.40;;;;;;4943542;28;20035;-86
2021/06/06 01:12:29;;;;;;;181.60;58.88;;;14.60;99.40;;;;;;4930461;29;20508;-88
2021/06/06 01:15:15;;;;;;;214.73;61.88;;;14.60;99.40;;;;;;4938086;28;20408;-88
2021/06/06 01:17:55;;;;;;;163.68;56.72;;;14.60;99.40;;;;;;4934761;29;20039;-84
2021/06/06 01:20:37;;;;;;;194.43;61.30;;;14.60;99.40;;;;;;4922244;29;20051;-86
2021/06/06 01:23:21;;;;;;;130.70;56.15;;;14.50;99.40;;;;;;4947554;28;20036;-86
2021/06/06 01:25:50;;;;;;;152.25;58.72;;;14.50;99.40;;;;;;4965978;28;20450;-85
2021/06/06 01:28:31;;;;;;;149.43;56.50;;;14.50;99.40;;;;;;4967578;28;20079;-87
2021/06/06 01:31:02;;;;;;;120.22;51.95;;;14.50;99.70;;;;;;4966865;28;20038;-86
2021/06/06 01:33:46;;;;;;;133.82;55.05;;;14.50;99.40;;;;;;4956793;28;20536;-87
2021/06/06 01:36:21;;;;;;;151.48;57.45;;;14.50;99.40;;;;;;4944991;28;20518;-85
2021/06/06 01:39:13;;;;;;;149.68;58.75;;;14.50;99.40;;;;;;4959849;28;20046;-86
2021/06/06 01:41:43;;;;;;;137.30;56.87;;;14.50;99.40;;;;;;4946861;28;20479;-87
2021/06/06 01:44:13;;;;;;;128.90;56.38;;;14.50;99.30;;;;;;4942693;28;20101;-86
2021/06/06 01:46:52;;;;;;;134.90;58.53;;;14.50;99.30;;;;;;4934775;28;20032;-88
2021/06/06 01:49:20;;;;;;;138.10;59.80;;;14.50;99.40;;;;;;4948252;28;20043;-86
2021/06/06 01:51:51;;;;;;;124.63;56.92;;;14.50;99.30;;;;;;4940073;28;20062;-85
2021/06/06 01:54:19;;;;;;;131.40;58.42;;;14.40;99.30;;;;;;4936817;29;20043;-87
2021/06/06 01:56:49;;;;;;;117.35;55.80;;;14.50;99.40;;;;;;4948155;28;20285;-87
2021/06/06 01:59:36;;;;;;;119.32;54.95;;;14.40;99.30;;;;;;4969601;28;20047;-86
2021/06/06 02:02:03;;;;;;;114.80;56.55;;;14.40;99.30;;;;;;4950445;28;20043;-88
2021/06/06 02:04:29;;;;;;;108.43;55.53;;;14.40;99.30;;;;;;4957973;28;20035;-85
2021/06/06 02:07:00;;;;;;;92.13;51.17;;;14.40;99.20;;;;;;4961388;28;20039;-87
2021/06/06 02:09:31;;;;;;;94.95;51.83;;;14.40;99.20;;;;;;4930623;28;20051;-86
2021/06/06 02:12:00;;;;;;;98.90;52.92;;;14.40;99.20;;;;;;4947054;28;20031;-87
2021/06/06 02:14:31;;;;;;;97.07;54.28;;;14.50;99.20;;;;;;4945474;28;20498;-86
2021/06/06 02:17:01;;;;;;;97.18;52.88;;;14.40;99.10;;;;;;4976578;28;20122;-88
2021/06/06 02:19:29;;;;;;;94.97;53.28;;;14.50;99.10;;;;;;4968519;28;20031;-87
2021/06/06 02:21:59;;;;;;;98.00;54.13;;;14.40;99.10;;;;;;4950777;28;20043;-86
2021/06/06 02:24:27;;;;;;;96.93;53.72;;;14.40;99.10;;;;;;4946134;29;20035;-88
2021/06/06 02:26:58;;;;;;;96.05;54.78;;;14.40;99.10;;;;;;4931173;29;20061;-87
2021/06/06 02:30:02;;;;;;;102.22;54.72;;;14.50;99.10;;;;;;4983147;28;20047;-86
2021/06/06 02:32:31;;;;;;;100.05;55.03;;;14.40;99.10;;;;;;4976099;28;20138;-87
2021/06/06 02:35:05;;;;;;;93.97;53.58;;;14.40;99.10;;;;;;4950552;28;20342;-85
2021/06/06 02:37:57;;;;;;;89.82;52.25;;;14.40;99.10;;;;;;4963313;28;20058;-86
2021/06/06 02:40:37;;;;;;;82.45;51.25;;;14.40;99.10;;;;;;4962275;28;20138;-86
2021/06/06 02:43:20;;;;;;;84.78;48.85;;;14.40;99.10;;;;;;4945376;28;20035;-87
2021/06/06 02:45:48;;;;;;;94.47;52.88;;;14.40;99.10;;;;;;4943399;28;20570;-87
2021/06/06 02:48:22;;;;;;;86.25;50.47;;;14.40;99.00;;;;;;4944775;28;20486;-87
2021/06/06 02:50:49;;;;;;;90.53;49.92;;;14.40;99.00;;;;;;4937594;28;20036;-87
2021/06/06 02:53:17;;;;;;;84.65;49.88;;;14.40;99.00;;;;;;4939039;28;20058;-87
2021/06/06 02:55:47;;;;;;;89.30;52.08;;;14.40;99.00;;;;;;4940304;28;20045;-86
2021/06/06 02:58:24;;;;;;;84.28;51.38;;;14.30;98.90;;;;;;4934702;28;20126;-84
2021/06/06 03:00:56;;;;;;;98.47;52.10;;;14.40;99.00;;;;;;4971979;28;20043;-87
2021/06/06 03:03:27;;;;;;;80.85;48.10;;;14.40;99.00;;;;;;4941434;28;20046;-86
2021/06/06 03:05:56;;;;;;;81.15;49.58;;;14.30;98.90;;;;;;4941894;28;20522;-86
2021/06/06 03:08:23;;;;;;;83.63;50.30;;;14.40;99.00;;;;;;4938245;28;20039;-86
2021/06/06 03:10:51;;;;;;;79.68;49.53;;;14.40;98.90;;;;;;4931312;28;20498;-86
2021/06/06 03:13:25;;;;;;;84.55;49.80;;;14.40;98.90;;;;;;4948342;28;20057;-86
2021/06/06 03:15:58;;;;;;;81.45;50.42;;;14.40;98.90;;;;;;4959149;28;20122;-86
2021/06/06 03:18:26;;;;;;;;;;;14.30;98.90;;;;;;4957236;28;20043;-86
2021/06/06 03:20:56;;;;;;;88.20;50.70;;;14.30;98.80;;;;;;4962532;28;20364;-87
2021/06/06 03:23:26;;;;;;;76.57;49.20;;;14.30;99.10;;;;;;4948209;28;20031;-86
2021/06/06 03:26:00;;;;;;;76.70;48.97;;;14.30;98.80;;;;;;4946614;28;20062;-86
2021/06/06 03:28:32;;;;;;;74.38;48.38;;;14.30;98.80;;;;;;4948644;28;20490;-86
2021/06/06 03:31:05;;;;;;;83.47;49.75;;;14.30;98.80;;;;;;4946357;28;21661;-85
2021/06/06 03:33:48;;;;;;;76.15;49.15;;;14.40;98.80;;;;;;4949812;28;20498;-86
2021/06/06 03:36:30;;;;;;;70.05;46.05;;;14.40;98.80;;;;;;4928363;29;20114;-84
2021/06/06 03:38:57;;;;;;;71.85;45.42;;;14.30;98.80;;;;;;4942089;28;20043;-85
2021/06/06 03:41:25;;;;;;;77.15;46.58;;;14.30;98.80;;;;;;4947242;28;20036;-85
2021/06/06 03:43:51;;;;;;;78.35;48.08;;;14.30;98.80;;;;;;4940345;28;20046;-85
2021/06/06 03:46:18;;;;;;;79.47;49.25;;;14.40;98.80;;;;;;4937448;28;20623;-85
2021/06/06 03:48:45;;;;;;;80.82;48.38;;;14.30;98.80;;;;;;4949991;28;20038;-86
2021/06/06 03:51:13;;;;;;;77.85;47.10;;;14.30;98.80;;;;;;4941295;28;20058;-85
2021/06/06 03:53:40;;;;;;;81.05;46.70;;;14.40;98.80;;;;;;4945506;28;20458;-86
2021/06/06 03:56:07;;;;;;;73.13;47.63;;;14.30;99.10;;;;;;4962980;28;20102;-84
2021/06/06 03:58:38;;;;;;;76.07;47.60;;;14.30;99.10;;;;;;4962289;28;20074;-85
2021/06/06 04:01:05;;;;;;;82.10;49.63;;;14.30;98.80;;;;;;4946857;29;20047;-85
2021/06/06 04:03:33;;;;;;;74.50;46.90;;;14.30;98.80;;;;;;4980709;28;20145;-87
2021/06/06 04:06:43;;;;;;;76.95;48.72;;;14.30;98.80;;;;;;4945646;29;20058;-86
2021/06/06 04:09:09;;;;;;;74.93;48.35;;;14.30;98.80;;;;;;4960931;28;20054;-85
2021/06/06 04:11:37;;;;;;;78.93;48.35;;;14.30;98.80;;;;;;4927915;29;20054;-86
2021/06/06 04:14:03;;;;;;;76.55;45.40;;;14.30;98.80;;;;;;4933650;28;20360;-86
2021/06/06 04:16:30;;;;;;;77.13;45.63;;;14.30;98.70;;;;;;4926956;29;20039;-84
2021/06/06 04:18:56;;;;;;;75.35;45.67;;;14.30;98.70;;;;;;4939364;28;20677;-85
2021/06/06 04:21:27;;;;;;;74.50;45.30;;;14.30;98.70;;;;;;4954356;28;20047;-83
2021/06/06 04:23:53;;;;;;;67.90;43.80;;;14.30;98.70;;;;;;4922142;28;20059;-84
2021/06/06 04:26:20;;;;;;;67.07;43.30;;;14.30;98.70;;;;;;4923120;29;20514;-85
2021/06/06 04:28:46;;;;;;;68.57;42.20;;;14.30;98.70;;;;;;4923131;29;20299;-83
2021/06/06 04:31:13;;;;;;;65.82;41.17;;;14.30;98.60;;;;;;4939348;28;20062;-84
2021/06/06 04:33:39;;;;;;;68.47;41.17;;;14.40;98.60;;;;;;4927677;28;20043;-82
2021/06/06 04:36:06;;;;;;;69.93;42.00;;;14.30;98.50;;;;;;4951725;28;20043;-84
2021/06/06 04:38:32;;;;;;;61.72;37.53;;;14.30;98.50;;;;;;4951455;28;20167;-83
2021/06/06 04:41:01;;;;;;;58.25;37.83;;;14.30;98.40;;;;;;4906899;28;20058;-84
2021/06/06 04:43:28;;;;;;;56.30;35.45;;;14.30;98.20;;;;;;4934915;28;20119;-89
2021/06/06 04:45:55;;;;;;;56.17;35.92;;;14.30;98.00;;;;;;4951718;28;21100;-85
2021/06/06 04:48:29;;;;;;;55.55;37.78;;;14.20;97.90;;;;;;4942582;29;20074;-86
2021/06/06 04:51:03;;;;;;;58.95;38.60;;;14.20;97.90;;;;;;4975166;28;20758;-86
2021/06/06 04:53:29;;;;;;;59.03;37.83;;;14.20;97.90;;;;;;4936122;28;20509;-85
2021/06/06 04:55:56;;;;;;;59.65;38.67;;;14.20;97.90;;;;;;4934180;28;20035;-86
2021/06/06 04:58:24;;;;;;;59.53;36.78;;;14.30;97.90;;;;;;4903020;29;20050;-86
2021/06/06 05:00:51;;;;;;;56.22;36.45;;;14.30;97.90;;;;;;4974257;28;20043;-86
2021/06/06 05:03:18;;;;;;;55.80;36.78;;;14.30;97.90;;;;;;4935467;28;20040;-86
2021/06/06 05:05:44;;;;;;;59.03;36.47;;;14.40;97.80;;;;;;4907383;28;20596;-85
2021/06/06 05:08:11;;;;;;;59.20;37.00;;;14.40;97.80;;;;;;4935335;28;20436;-85
2021/06/06 05:10:40;;;;;;;57.50;35.03;;;14.40;97.70;;;;;;4931307;28;20054;-86
2021/06/06 05:13:07;;;;;;;58.63;35.90;;;14.40;97.60;;;;;;4938121;28;20038;-84
2021/06/06 05:15:33;;;;;;;56.95;35.00;;;14.40;97.60;;;;;;4933391;28;20043;-85
2021/06/06 05:17:59;;;;;;;58.03;35.95;;;14.40;97.50;;;;;;4928063;28;20047;-87
2021/06/06 05:20:28;;;;;;;52.92;33.83;;;14.40;97.50;;;;;;4931982;29;20059;-85
2021/06/06 05:22:54;;;;;;;54.40;35.72;;;14.40;97.40;;;;;;4960347;28;20036;-85
2021/06/06 05:25:23;;;;;;;58.33;35.92;;;14.40;97.40;;;;;;4947125;28;20667;-88
2021/06/06 05:27:50;;;;;;;56.05;35.35;;;14.50;97.40;;;;;;4961991;28;20036;-86
2021/06/06 05:30:27;;;;;;;51.22;34.22;;;14.50;97.40;;;;;;4949985;28;20129;-85
2021/06/06 05:32:54;;;;;;;49.67;31.83;;;14.50;97.30;;;;;;4931383;28;20088;-84
2021/06/06 05:35:24;;;;;;;53.95;35.05;;;14.50;97.40;;;;;;4944347;29;20035;-85
2021/06/06 05:37:51;;;;;;;54.65;35.20;;;14.50;97.40;;;;;;4946830;29;20126;-85
2021/06/06 05:40:17;;;;;;;50.88;33.33;;;14.50;97.40;;;;;;4928586;29;20122;-86
2021/06/06 05:42:46;;;;;;;51.40;32.35;;;14.50;97.40;;;;;;4930946;29;20058;-86
2021/06/06 05:45:14;;;;;;;52.63;33.55;;;14.50;97.20;;;;;;4907699;29;20043;-88
2021/06/06 05:47:41;;;;;;;53.75;34.15;;;14.50;97.10;;;;;;4950029;28;20067;-85
2021/06/06 05:50:07;;;;;;;55.30;33.42;;;14.60;97.10;;;;;;4950859;28;20043;-85
2021/06/06 05:52:33;;;;;;;56.08;35.35;;;14.60;97.00;;;;;;4939070;28;20094;-84
2021/06/06 05:55:00;;;;;;;55.63;34.33;;;14.50;96.90;;;;;;4950174;28;20134;-85
2021/06/06 05:57:27;;;;;;;59.25;35.88;;;14.50;96.90;;;;;;4943717;28;20032;-84
2021/06/06 05:59:53;;;;;;;57.65;35.90;;;14.50;97.00;;;;;;4945145;29;20566;-86
2021/06/06 06:02:19;;;;;;;57.53;36.40;;;14.50;97.00;;;;;;4949355;28;20191;-84
2021/06/06 06:04:45;;;;;;;58.53;34.10;;;14.50;97.10;;;;;;4953918;28;20612;-85
2021/06/06 06:07:11;;;;;;;58.00;34.35;;;14.60;97.20;;;;;;4937307;29;20067;-86
2021/06/06 06:09:37;;;;;;;61.38;35.78;;;14.60;97.20;;;;;;4952210;28;20046;-84
2021/06/06 06:12:07;;;;;;;58.28;34.10;;;14.70;97.20;;;;;;4946933;28;20050;-85
2021/06/06 06:14:33;;;;;;;60.92;35.25;;;14.70;97.20;;;;;;4925391;29;20631;-85
2021/06/06 06:16:59;;;;;;;62.13;35.00;;;14.70;97.20;;;;;;4946269;28;20039;-85
2021/06/06 06:19:25;;;;;;;60.13;33.42;;;14.70;97.20;;;;;;4935508;28;20109;-86
2021/06/06 06:21:51;;;;;;;60.42;34.33;;;14.70;97.20;;;;;;4944500;28;20126;-86
2021/06/06 06:24:16;;;;;;;59.65;32.70;;;14.70;97.20;;;;;;4933307;28;20035;-83
2021/06/06 06:26:43;;;;;;;57.83;32.33;;;14.70;97.20;;;;;;4951449;28;20534;-86
2021/06/06 06:29:18;;;;;;;57.03;30.60;;;14.70;97.20;;;;;;4950259;28;20057;-85
2021/06/06 06:31:44;;;;;;;62.75;30.50;;;14.70;97.30;;;;;;4968608;28;20046;-84
2021/06/06 06:34:11;;;;;;;65.97;33.13;;;14.60;97.30;;;;;;4946430;28;20035;-87
2021/06/06 06:36:36;;;;;;;69.20;33.92;;;14.70;97.40;;;;;;4906331;29;20402;-87
2021/06/06 06:39:05;;;;;;;61.72;32.10;;;14.60;97.50;;;;;;4936079;29;20451;-84
2021/06/06 06:41:31;;;;;;;60.25;32.13;;;14.60;97.50;;;;;;4935015;28;20082;-84
2021/06/06 06:43:57;;;;;;;61.42;32.00;;;14.60;97.60;;;;;;4950479;28;20039;-84
2021/06/06 06:46:24;;;;;;;64.13;31.40;;;14.60;97.60;;;;;;4935812;28;20042;-84
2021/06/06 06:48:51;;;;;;;60.28;30.92;;;14.70;97.60;;;;;;4934982;29;20086;-84
2021/06/06 06:51:17;;;;;;;71.50;32.55;;;14.70;97.50;;;;;;4945938;28;20063;-85
2021/06/06 06:53:43;;;;;;;75.40;33.83;;;14.60;97.60;;;;;;4960979;28;20035;-84
2021/06/06 06:56:09;;;;;;;84.97;35.85;;;14.60;97.60;;;;;;4957433;28;20066;-86
2021/06/06 06:58:35;;;;;;;75.05;32.95;;;14.70;97.70;;;;;;4923197;29;20094;-86
2021/06/06 07:01:01;;;;;;;82.20;33.25;;;14.60;97.70;;;;;;4948647;28;20043;-87
2021/06/06 07:03:30;;;;;;;73.85;32.45;;;14.60;97.70;;;;;;4925236;28;20039;-86
2021/06/06 07:05:57;;;;;;;76.43;32.13;;;14.60;97.80;;;;;;4950881;28;20171;-85
2021/06/06 07:08:28;;;;;;;74.18;31.00;;;14.60;97.90;;;;;;4941913;28;20715;-84
2021/06/06 07:10:55;;;;;;;71.88;30.48;;;14.60;98.00;;;;;;4936614;28;20043;-84
2021/06/06 07:13:22;;;;;;;67.63;30.17;;;14.60;98.00;;;;;;4926145;29;20476;-85
2021/06/06 07:15:48;;;;;;;66.50;29.55;;;14.70;98.00;;;;;;4934505;28;20154;-84
2021/06/06 07:18:20;;;;;;;66.53;30.38;;;14.60;98.00;;;;;;4933634;29;20161;-85
2021/06/06 07:20:53;;;;;;;72.70;32.03;;;14.60;98.00;;;;;;4939963;28;20131;-85
2021/06/06 07:23:20;;;;;;;81.97;32.95;;;14.60;98.00;;;;;;4937120;28;20547;-85
2021/06/06 07:25:46;;;;;;;72.57;32.40;;;14.60;98.10;;;;;;4940413;28;20463;-84
2021/06/06 07:28:20;;;;;;;71.47;31.40;;;14.60;98.10;;;;;;4928330;28;20032;-82
2021/06/06 07:30:49;;;;;;;69.88;31.85;;;14.60;98.10;;;;;;4963939;28;20122;-84
2021/06/06 07:33:18;;;;;;;65.47;30.65;;;14.70;98.10;;;;;;4944696;28;20043;-86
2021/06/06 07:35:44;;;;;;;66.60;30.23;;;14.60;98.00;;;;;;4948088;29;20035;-84
2021/06/06 07:38:30;;;;;;;68.97;30.27;;;14.60;98.00;;;;;;4908590;29;20039;-85
2021/06/06 07:40:58;;;;;;;64.03;30.80;;;14.60;98.00;;;;;;4933542;29;20039;-85
2021/06/06 07:43:24;;;;;;;62.67;29.33;;;14.60;98.00;;;;;;4980096;28;20553;-84
2021/06/06 07:45:51;;;;;;;62.50;30.65;;;14.60;97.90;;;;;;4933698;29;20046;-85
2021/06/06 07:48:19;;;;;;;61.95;30.10;;;14.60;98.30;;;;;;4930766;29;20876;-86
2021/06/06 07:50:47;;;;;;;58.90;28.85;;;14.60;98.00;;;;;;4965839;28;20102;-86
2021/06/06 07:53:14;;;;;;;51.88;27.88;;;14.60;98.00;;;;;;4951917;28;20043;-87
2021/06/06 07:55:50;;;;;;;50.65;26.70;;;14.60;97.90;;;;;;4917280;29;20036;-86
2021/06/06 07:58:20;;;;;;;52.95;28.67;;;14.60;97.90;;;;;;4919475;29;20031;-86
2021/06/06 08:00:46;;;;;;;53.28;29.23;;;14.60;97.90;;;;;;4944215;28;20031;-86
2021/06/06 08:03:12;;;;;;;51.55;27.13;;;14.50;97.80;;;;;;4911940;29;20102;-85
2021/06/06 08:05:39;;;;;;;61.05;29.35;;;14.50;97.80;;;;;;4940021;28;20043;-84
2021/06/06 08:08:07;;;;;;;55.15;28.45;;;14.50;97.80;;;;;;4925573;29;20031;-85
2021/06/06 08:10:36;;;;;;;53.30;26.65;;;14.50;97.90;;;;;;4957071;28;20043;-86
2021/06/06 08:13:03;;;;;;;51.15;26.05;;;14.50;97.90;;;;;;4956292;28;20143;-86
2021/06/06 08:15:29;;;;;;;51.78;26.20;;;14.40;97.90;;;;;;4928965;29;20043;-86
2021/06/06 08:17:57;;;;;;;62.00;28.90;;;14.40;97.90;;;;;;4924015;28;21680;-85
2021/06/06 08:20:35;;;;;;;50.95;27.98;;;14.40;98.00;;;;;;4938961;28;20057;-86
2021/06/06 08:23:01;;;;;;;54.75;29.27;;;14.50;98.00;;;;;;4922298;28;20194;-86
2021/06/06 08:25:39;;;;;;;53.65;28.42;;;14.50;98.00;;;;;;4963197;28;20520;-86
2021/06/06 08:28:06;;;;;;;62.83;29.95;;;14.50;98.00;;;;;;4949918;28;20351;-86
2021/06/06 08:30:44;;;;;;;54.95;28.42;;;14.50;98.00;;;;;;4963026;28;20122;-86
2021/06/06 08:33:11;;;;;;;63.13;30.35;;;14.50;98.00;;;;;;4945916;29;20058;-86
2021/06/06 08:35:38;;;;;;;60.50;32.25;;;14.50;98.00;;;;;;4934214;29;20040;-86
2021/06/06 08:38:05;;;;;;;65.32;32.40;;;14.50;98.00;;;;;;4923338;28;20058;-87
2021/06/06 08:40:54;;;;;;;52.20;28.33;;;14.60;98.10;;;;;;4945562;28;20035;-86
2021/06/06 08:43:25;;;;;;;54.40;27.15;;;14.70;98.10;;;;;;4964241;28;20230;-86
2021/06/06 08:45:57;;;;;;;51.00;26.00;;;14.70;98.00;;;;;;4930309;28;20063;-86
2021/06/06 08:48:27;;;;;;;50.40;26.47;;;14.70;98.00;;;;;;4976728;28;20328;-84
2021/06/06 08:51:20;;;;;;;56.90;29.10;;;14.80;97.90;;;;;;4955821;28;20414;-86
2021/06/06 08:54:04;;;;;;;57.15;29.10;;;14.80;97.80;;;;;;4935478;29;20032;-86
2021/06/06 08:56:36;;;;;;;58.70;29.60;;;14.70;97.70;;;;;;4953253;28;20047;-88
2021/06/06 08:59:07;;;;;;;67.20;33.43;;;14.80;97.80;;;;;;4961962;28;20036;-87
2021/06/06 09:01:59;;;;;;;64.63;35.03;;;14.80;97.70;;;;;;4967828;28;20592;-86
2021/06/06 09:04:34;;;;;;;67.60;34.60;;;14.80;97.70;;;;;;4945381;29;20031;-88
2021/06/06 09:07:10;;;;;;;65.78;35.47;;;14.80;97.80;;;;;;4934487;29;20043;-84
2021/06/06 09:09:40;;;;;;;73.07;37.42;;;14.80;97.70;;;;;;4964210;28;20050;-86
2021/06/06 09:12:10;;;;;;;74.57;38.45;;;14.70;97.70;;;;;;4970484;28;20067;-87
2021/06/06 09:14:36;;;;;;;74.45;37.78;;;14.80;97.80;;;;;;4943610;29;20038;-87
2021/06/06 09:17:12;;;;;;;74.15;39.03;;;14.80;97.80;;;;;;4946390;28;20037;-85
2021/06/06 09:19:56;;;;;;;76.63;39.50;;;14.70;97.70;;;;;;4934402;29;20043;-87
2021/06/06 09:22:37;;;;;;;78.80;39.53;;;14.70;97.70;;;;;;4915927;29;20043;-85
2021/06/06 09:25:23;;;;;;;72.32;40.15;;;14.70;97.80;;;;;;4949288;28;20134;-87
2021/06/06 09:28:06;;;;;;;71.10;39.13;;;14.70;97.70;;;;;;4938148;28;20041;-86
2021/06/06 09:30:34;;;;;;;87.15;43.13;;;14.70;97.70;;;;;;4939992;28;20486;-86
2021/06/06 09:33:13;;;;;;;75.90;40.92;;;14.70;97.80;;;;;;4946197;28;20054;-86
2021/06/06 09:35:52;;;;;;;78.63;40.08;;;14.70;97.80;;;;;;4962241;28;20106;-86
2021/06/06 09:38:30;;;;;;;66.47;37.55;;;14.70;97.80;;;;;;4926720;28;20391;-86
2021/06/06 09:41:10;;;;;;;71.40;37.80;;;14.70;97.80;;;;;;4961083;28;20063;-85
2021/06/06 09:43:36;;;;;;;65.07;36.22;;;14.70;97.80;;;;;;4927060;29;20325;-86
2021/06/06 09:46:14;;;;;;;64.63;34.22;;;14.70;97.80;;;;;;4954401;28;20039;-86
2021/06/06 09:48:44;;;;;;;60.03;34.50;;;14.70;97.90;;;;;;4933645;28;20059;-86
2021/06/06 09:51:15;;;;;;;64.55;35.55;;;14.70;97.80;;;;;;4950512;28;20397;-86
2021/06/06 09:53:43;;;;;;;67.10;35.27;;;14.60;97.90;;;;;;4948712;28;20075;-86
2021/06/06 09:56:21;;;;;;;64.18;34.63;;;14.70;98.00;;;;;;4933210;28;20046;-86
2021/06/06 09:58:48;;;;;;;65.50;36.25;;;14.70;98.00;;;;;;4966278;28;20066;-85
2021/06/06 10:01:32;;;;;;;61.10;33.67;;;14.70;98.00;;;;;;4951078;28;20090;-85
2021/06/06 10:04:20;;;;;;;69.20;35.85;;;14.70;98.10;;;;;;4950180;28;20510;-85
2021/06/06 10:06:46;;;;;;;68.10;36.03;;;14.80;98.10;;;;;;4979269;28;20062;-86
2021/06/06 10:09:25;;;;;;;62.80;34.70;;;14.80;98.10;;;;;;4915521;29;20043;-85
2021/06/06 10:12:03;;;;;;;57.60;33.17;;;14.80;98.10;;;;;;4963181;28;20047;-85
2021/06/06 10:14:50;;;;;;;57.78;31.40;;;14.80;98.00;;;;;;4949393;29;20046;-86
2021/06/06 10:17:40;;;;;;;58.25;30.58;;;14.80;98.00;;;;;;4944603;28;20659;-85
2021/06/06 10:20:14;;;;;;;57.25;31.42;;;14.70;98.00;;;;;;4969033;28;20474;-86
2021/06/06 10:22:58;;;;;;;46.28;28.75;;;14.70;98.00;;;;;;4934111;28;20051;-87
2021/06/06 10:25:37;;;;;;;44.58;26.13;;;14.80;98.00;;;;;;4934316;28;20038;-85
2021/06/06 10:28:06;;;;;;;45.90;25.58;;;14.80;98.00;;;;;;4966183;28;20386;-85
2021/06/06 10:30:43;;;;;;;38.97;22.98;;;14.80;97.90;;;;;;4920131;29;20374;-85
2021/06/06 10:33:41;;;;;;;45.08;24.52;;;14.80;97.90;;;;;;4943429;28;20054;-84
2021/06/06 10:36:07;;;;;;;44.85;24.63;;;14.80;97.80;;;;;;4954963;28;20066;-84
2021/06/06 10:38:38;;;;;;;49.22;26.60;;;14.80;97.80;;;;;;4945369;29;20051;-83
2021/06/06 10:41:13;;;;;;;34.72;22.23;;;14.80;97.90;;;;;;4948396;28;20327;-84
2021/06/06 10:43:52;;;;;;;37.53;22.20;;;14.90;97.90;;;;;;4948918;28;20035;-83
2021/06/06 10:46:42;;;;;;;35.33;22.58;;;14.90;98.00;;;;;;4945312;28;20130;-84
2021/06/06 10:49:19;;;;;;;38.38;22.08;;;14.90;97.90;;;;;;4943698;28;20054;-83
2021/06/06 10:51:57;;;;;;;37.60;20.90;;;15.00;97.90;;;;;;4967403;28;20622;-85
2021/06/06 10:54:44;;;;;;;36.33;21.08;;;15.10;97.90;;;;;;4970494;28;20454;-83
2021/06/06 10:57:30;;;;;;;28.17;18.75;;;15.20;97.80;;;;;;4942407;28;20090;-85
2021/06/06 11:00:02;;;;;;;27.38;17.60;;;15.10;97.90;;;;;;4953767;28;20039;-86
2021/06/06 11:02:52;;;;;;;29.63;18.25;;;15.20;97.60;;;;;;4952714;28;20487;-86
2021/06/06 11:05:35;;;;;;;25.38;17.75;;;15.20;97.60;;;;;;4950055;28;20047;-84
2021/06/06 11:08:01;;;;;;;30.90;19.55;;;15.10;97.60;;;;;;4967886;28;20439;-83
2021/06/06 11:10:37;;;;;;;26.63;18.40;;;15.20;97.60;;;;;;4924700;28;20042;-83
2021/06/06 11:13:28;;;;;;;28.60;19.55;;;15.20;97.60;;;;;;4954071;28;20062;-84
2021/06/06 11:16:19;;;;;;;25.23;18.60;;;15.20;97.60;;;;;;4948787;29;20039;-83
2021/06/06 11:18:47;;;;;;;28.90;19.55;;;15.30;97.60;;;;;;4950808;29;20483;-83
2021/06/06 11:21:13;;;;;;;26.48;17.05;;;15.30;97.60;;;;;;4950583;28;20545;-84
2021/06/06 11:23:55;;;;;;;22.08;16.30;;;15.30;97.60;;;;;;4947865;29;21092;-84
2021/06/06 11:26:33;;;;;;;23.80;17.25;;;15.40;97.50;;;;;;4967082;28;20047;-83
2021/06/06 11:29:14;;;;;;;21.02;15.70;;;15.40;97.40;;;;;;4984130;28;20099;-87
2021/06/06 11:32:08;;;;;;;22.63;16.40;;;15.40;97.40;;;;;;4961031;28;20035;-89
2021/06/06 11:34:36;;;;;;;21.10;15.50;;;15.50;97.50;;;;;;4937934;28;20043;-88
2021/06/06 11:37:27;;;;;;;16.35;13.43;;;15.60;97.40;;;;;;4951656;28;20524;-90
2021/06/06 11:39:55;;;;;;;19.67;16.33;;;15.60;97.40;;;;;;4959958;28;20133;-87
2021/06/06 11:42:37;;;;;;;14.18;11.57;;;15.60;97.40;;;;;;4935808;28;20122;-89
2021/06/06 11:45:18;;;;;;;16.52;14.10;;;15.70;97.30;;;;;;4949936;28;20031;-91
2021/06/06 11:47:46;;;;;;;14.38;11.05;;;15.80;97.40;;;;;;4950353;29;20034;-92
2021/06/06 11:50:35;;;;;;;13.20;9.95;;;15.90;97.40;;;;;;4938723;28;20133;-90
2021/06/06 11:53:21;;;;;;;12.45;10.07;;;15.90;97.10;;;;;;4933348;29;20083;-90
2021/06/06 11:55:52;;;;;;;13.30;10.23;;;15.90;97.00;;;;;;4970139;28;20451;-91
2021/06/06 11:58:34;;;;;;;10.93;8.73;;;16.00;97.00;;;;;;4973978;28;20027;-91
2021/06/06 12:01:18;;;;;;;9.23;8.20;;;16.00;96.90;;;;;;4960325;28;20047;-91
2021/06/06 12:03:48;;;;;;;8.73;7.65;;;16.00;96.90;;;;;;4945167;29;20070;-91
2021/06/06 12:06:26;;;;;;;9.75;6.93;;;16.00;96.80;;;;;;4943208;28;20118;-87
2021/06/06 12:08:55;;;;;;;8.85;6.45;;;16.00;96.80;;;;;;4937797;28;20406;-89
2021/06/06 12:11:21;;;;;;;6.88;5.90;;;16.00;96.80;;;;;;4946341;28;20418;-93
2021/06/06 12:13:49;;;;;;;6.97;5.85;;;16.00;96.60;;;;;;4967812;28;20038;-90
2021/06/06 12:16:24;;;;;;;6.63;6.03;;;16.00;96.80;;;;;;4949784;28;20139;-91
2021/06/06 12:19:06;;;;;;;10.00;6.80;;;16.00;96.60;;;;;;4949135;29;20046;-91
2021/06/06 12:21:36;;;;;;;6.97;6.37;;;16.00;96.70;;;;;;4950276;28;20035;-90
2021/06/06 12:24:26;;;;;;;6.75;6.15;;;16.00;96.70;;;;;;4969543;28;20027;-91
2021/06/06 12:27:07;;;;;;;13.90;7.10;;;15.90;96.50;;;;;;4952627;28;20042;-91
2021/06/06 12:29:39;;;;;;;8.15;6.72;;;15.90;96.50;;;;;;4938647;28;20047;-87
2021/06/06 12:32:13;;;;;;;7.38;5.75;;;15.80;96.50;;;;;;4944574;28;20638;-89
2021/06/06 12:34:44;;;;;;;7.97;6.63;;;15.80;96.40;;;;;;4963169;28;20094;-92
2021/06/06 12:37:20;;;;;;;7.80;6.22;;;15.80;96.50;;;;;;4933398;29;20039;-92
2021/06/06 12:39:51;;;;;;;8.20;6.05;;;15.80;96.50;;;;;;4947618;29;20031;-92
2021/06/06 12:42:27;;;;;;;7.43;6.70;;;15.80;96.50;;;;;;4947962;28;20055;-91
2021/06/06 12:44:58;;;;;;;6.57;5.80;;;15.80;96.50;;;;;;4931995;29;20126;-91
2021/06/06 12:47:34;;;;;;;6.30;5.70;;;15.80;96.50;;;;;;4946265;29;20027;-91
2021/06/06 12:50:24;;;;;;;6.40;5.80;;;15.90;96.40;;;;;;4941378;28;20039;-90
2021/06/06 12:53:31;;;;;;;7.05;6.35;;;15.90;96.40;;;;;;4936705;28;20898;-90